Strona główna
METAR-TAF:

METAR-TAF

Lotnisko :

Port lotniczy Phuket

Phuket, Tajlandia

Szerokość geograficzna: 08-07N, Długość geograficzna: 098-19E, wysokość: 6 m

Aktualna obserwacja pogody

Raport powstał 28 minut temu, godzina 12:30 UTC
Cisza
Temperatura 26°C
Wilgotność 94%
Ciśnienie 1007 hPa
Widzialność 10 km lub więcej
Mało chmury na wysokości 2000 ft
Przerywane chmury na wysokości 10000 ft

METAR: VTSP 041230Z 00000KT 9999 FEW020 BKN100 26/25 Q1007 NOSIG

czas: 19:58 (12:58 UTC)

Prognoza

Raport powstał 1 godzina i 58 minut temu, godzina 11:00 UTC
Prognoza ważna od 04 godzina 12 UTC do 05 godzina 18 UTC
Wiatr kt od północ
Widzialność 10 km lub więcej
Mało chmury na wysokości 2000 ft
Rozproszone chmury na wysokości 10000 ft
Stopniowe zmiany
od 05 godzina 04 UTC do 05 godzina 06 UTC
Wiatr 8 kt od zachód
Stopniowe zmiany
od 05 godzina 12 UTC do 05 godzina 14 UTC
Wiatr kt od północ

TAF: VTSP 041100Z 0412/0518 00000KT 9999 FEW020 SCT100 BECMG 0504/0506 28008KT BECMG 0512/0514 00000KT

Obserwacja i prognoza pogody dla ponad 4000 lotnisk (raport METAR i TAF).

Dostępne stacje oznaczono żółtymi i czerwonymi punktami na mapie.

Najedź kursorem aby zobaczyć nazwę stacji.

Kliknij aby zobaczyć obserwacje i prognozy pogody.

Aby zmienić mapę: kliknij na zielony przycisk z czarnym krzyżykiem, aby powiększyć; na zielony przycisk z myślnikiem, aby pomniejszyć; na zielone strzałki, aby przejść do map sąsiednich.


METAR-TAF: